sensor_id;sensor_type;location;lat;lon;timestamp;P1;durP1;ratioP1;P2;durP2;ratioP2
66145;SDS011;52948;60.040;30.320;2023-06-24T00:03:08;6.63;;;3.97;;
66145;SDS011;52948;60.040;30.320;2023-06-24T00:08:10;6.50;;;4.25;;
66145;SDS011;52948;60.040;30.320;2023-06-24T00:13:13;7.78;;;4.43;;
66145;SDS011;52948;60.040;30.320;2023-06-24T00:18:16;5.03;;;3.58;;
66145;SDS011;52948;60.040;30.320;2023-06-24T00:23:20;6.43;;;3.58;;
66145;SDS011;52948;60.040;30.320;2023-06-24T00:28:27;6.25;;;3.65;;
66145;SDS011;52948;60.040;30.320;2023-06-24T00:33:30;5.30;;;3.15;;
66145;SDS011;52948;60.040;30.320;2023-06-24T00:43:40;5.75;;;3.38;;
66145;SDS011;52948;60.040;30.320;2023-06-24T00:48:46;6.80;;;4.50;;
66145;SDS011;52948;60.040;30.320;2023-06-24T00:53:48;7.88;;;4.00;;
66145;SDS011;52948;60.040;30.320;2023-06-24T00:58:52;8.77;;;4.65;;
66145;SDS011;52948;60.040;30.320;2023-06-24T01:03:55;6.85;;;4.47;;
66145;SDS011;52948;60.040;30.320;2023-06-24T01:08:58;7.00;;;5.28;;
66145;SDS011;52948;60.040;30.320;2023-06-24T01:14:04;7.00;;;4.95;;
66145;SDS011;52948;60.040;30.320;2023-06-24T01:19:12;7.43;;;4.85;;
66145;SDS011;52948;60.040;30.320;2023-06-24T01:24:48;7.20;;;4.93;;
66145;SDS011;52948;60.040;30.320;2023-06-24T01:35:20;5.68;;;3.95;;
66145;SDS011;52948;60.040;30.320;2023-06-24T01:40:37;8.23;;;5.00;;
66145;SDS011;52948;60.040;30.320;2023-06-24T01:45:42;6.00;;;4.15;;
66145;SDS011;52948;60.040;30.320;2023-06-24T01:50:55;6.78;;;3.83;;
66145;SDS011;52948;60.040;30.320;2023-06-24T01:56:17;5.35;;;3.00;;
66145;SDS011;52948;60.040;30.320;2023-06-24T02:01:21;5.32;;;3.50;;
66145;SDS011;52948;60.040;30.320;2023-06-24T02:06:24;4.10;;;3.55;;
66145;SDS011;52948;60.040;30.320;2023-06-24T02:11:27;4.55;;;3.22;;
66145;SDS011;52948;60.040;30.320;2023-06-24T02:16:32;5.07;;;3.20;;
66145;SDS011;52948;60.040;30.320;2023-06-24T02:21:34;6.28;;;3.30;;
66145;SDS011;52948;60.040;30.320;2023-06-24T02:26:37;4.68;;;3.40;;
66145;SDS011;52948;60.040;30.320;2023-06-24T02:31:42;6.70;;;3.65;;
66145;SDS011;52948;60.040;30.320;2023-06-24T02:36:47;5.78;;;3.30;;
66145;SDS011;52948;60.040;30.320;2023-06-24T02:42:08;4.60;;;3.25;;
66145;SDS011;52948;60.040;30.320;2023-06-24T02:47:11;4.72;;;3.75;;
66145;SDS011;52948;60.040;30.320;2023-06-24T02:52:15;4.47;;;3.40;;
66145;SDS011;52948;60.040;30.320;2023-06-24T02:57:17;4.85;;;3.10;;
66145;SDS011;52948;60.040;30.320;2023-06-24T03:02:51;4.60;;;3.70;;
66145;SDS011;52948;60.040;30.320;2023-06-24T03:07:53;5.22;;;3.63;;
66145;SDS011;52948;60.040;30.320;2023-06-24T03:12:58;6.20;;;3.47;;
66145;SDS011;52948;60.040;30.320;2023-06-24T03:18:11;4.47;;;3.65;;
66145;SDS011;52948;60.040;30.320;2023-06-24T03:23:14;4.55;;;3.22;;
66145;SDS011;52948;60.040;30.320;2023-06-24T03:28:19;5.75;;;3.15;;
66145;SDS011;52948;60.040;30.320;2023-06-24T03:33:32;5.40;;;3.75;;
66145;SDS011;52948;60.040;30.320;2023-06-24T03:38:35;6.28;;;3.67;;
66145;SDS011;52948;60.040;30.320;2023-06-24T03:43:37;5.55;;;3.55;;
66145;SDS011;52948;60.040;30.320;2023-06-24T03:48:40;4.97;;;3.63;;
66145;SDS011;52948;60.040;30.320;2023-06-24T03:53:43;5.78;;;3.53;;
66145;SDS011;52948;60.040;30.320;2023-06-24T03:58:45;5.32;;;3.90;;
66145;SDS011;52948;60.040;30.320;2023-06-24T04:03:47;4.93;;;3.85;;
66145;SDS011;52948;60.040;30.320;2023-06-24T04:08:50;6.88;;;3.63;;
66145;SDS011;52948;60.040;30.320;2023-06-24T04:13:53;7.30;;;4.13;;
66145;SDS011;52948;60.040;30.320;2023-06-24T04:18:56;4.40;;;3.67;;
66145;SDS011;52948;60.040;30.320;2023-06-24T04:23:58;5.22;;;3.60;;
66145;SDS011;52948;60.040;30.320;2023-06-24T04:29:01;5.63;;;3.70;;
66145;SDS011;52948;60.040;30.320;2023-06-24T04:34:04;6.03;;;3.72;;
66145;SDS011;52948;60.040;30.320;2023-06-24T04:39:08;5.18;;;3.88;;
66145;SDS011;52948;60.040;30.320;2023-06-24T04:44:10;5.72;;;3.72;;
66145;SDS011;52948;60.040;30.320;2023-06-24T04:49:13;5.10;;;4.30;;
66145;SDS011;52948;60.040;30.320;2023-06-24T04:54:18;5.80;;;3.95;;
66145;SDS011;52948;60.040;30.320;2023-06-24T04:59:20;4.47;;;3.45;;
66145;SDS011;52948;60.040;30.320;2023-06-24T05:04:23;5.03;;;3.70;;
66145;SDS011;52948;60.040;30.320;2023-06-24T05:09:25;4.70;;;3.63;;
66145;SDS011;52948;60.040;30.320;2023-06-24T05:14:27;5.25;;;3.83;;
66145;SDS011;52948;60.040;30.320;2023-06-24T05:19:30;6.40;;;3.20;;
66145;SDS011;52948;60.040;30.320;2023-06-24T05:24:32;4.32;;;3.30;;
66145;SDS011;52948;60.040;30.320;2023-06-24T05:29:34;3.92;;;3.50;;
66145;SDS011;52948;60.040;30.320;2023-06-24T05:34:37;6.75;;;3.80;;
66145;SDS011;52948;60.040;30.320;2023-06-24T05:39:39;7.03;;;3.90;;
66145;SDS011;52948;60.040;30.320;2023-06-24T05:44:41;3.95;;;3.55;;
66145;SDS011;52948;60.040;30.320;2023-06-24T05:49:43;4.90;;;4.13;;
66145;SDS011;52948;60.040;30.320;2023-06-24T05:54:45;4.25;;;3.80;;
66145;SDS011;52948;60.040;30.320;2023-06-24T05:59:50;5.45;;;4.63;;
66145;SDS011;52948;60.040;30.320;2023-06-24T06:04:53;5.30;;;4.30;;
66145;SDS011;52948;60.040;30.320;2023-06-24T06:09:55;5.32;;;4.50;;
66145;SDS011;52948;60.040;30.320;2023-06-24T06:14:57;7.35;;;5.03;;
66145;SDS011;52948;60.040;30.320;2023-06-24T06:19:59;5.00;;;4.50;;
66145;SDS011;52948;60.040;30.320;2023-06-24T06:25:02;5.38;;;3.80;;
66145;SDS011;52948;60.040;30.320;2023-06-24T06:30:06;5.03;;;3.72;;
66145;SDS011;52948;60.040;30.320;2023-06-24T06:35:09;4.15;;;3.40;;
66145;SDS011;52948;60.040;30.320;2023-06-24T06:40:11;4.35;;;3.95;;
66145;SDS011;52948;60.040;30.320;2023-06-24T06:45:13;5.03;;;4.53;;
66145;SDS011;52948;60.040;30.320;2023-06-24T06:50:16;4.15;;;3.75;;
66145;SDS011;52948;60.040;30.320;2023-06-24T06:55:18;4.75;;;3.67;;
66145;SDS011;52948;60.040;30.320;2023-06-24T07:00:20;4.63;;;3.42;;
66145;SDS011;52948;60.040;30.320;2023-06-24T07:05:22;5.63;;;3.30;;
66145;SDS011;52948;60.040;30.320;2023-06-24T07:10:25;7.20;;;4.18;;
66145;SDS011;52948;60.040;30.320;2023-06-24T07:15:27;5.13;;;4.13;;
66145;SDS011;52948;60.040;30.320;2023-06-24T07:20:29;6.32;;;4.28;;
66145;SDS011;52948;60.040;30.320;2023-06-24T07:25:31;5.47;;;4.40;;
66145;SDS011;52948;60.040;30.320;2023-06-24T07:30:34;7.95;;;4.97;;
66145;SDS011;52948;60.040;30.320;2023-06-24T07:35:36;5.78;;;4.60;;
66145;SDS011;52948;60.040;30.320;2023-06-24T07:40:39;5.95;;;4.55;;
66145;SDS011;52948;60.040;30.320;2023-06-24T07:45:42;9.70;;;5.78;;
66145;SDS011;52948;60.040;30.320;2023-06-24T07:50:44;6.72;;;4.97;;
66145;SDS011;52948;60.040;30.320;2023-06-24T07:55:47;5.18;;;4.68;;
66145;SDS011;52948;60.040;30.320;2023-06-24T08:00:49;4.75;;;4.28;;
66145;SDS011;52948;60.040;30.320;2023-06-24T08:05:51;5.47;;;3.72;;
66145;SDS011;52948;60.040;30.320;2023-06-24T08:10:53;4.55;;;4.07;;
66145;SDS011;52948;60.040;30.320;2023-06-24T08:15:56;4.30;;;3.63;;
66145;SDS011;52948;60.040;30.320;2023-06-24T08:20:58;5.97;;;3.28;;
66145;SDS011;52948;60.040;30.320;2023-06-24T08:26:00;4.40;;;3.08;;
66145;SDS011;52948;60.040;30.320;2023-06-24T08:31:02;3.78;;;2.90;;
66145;SDS011;52948;60.040;30.320;2023-06-24T08:36:05;2.78;;;2.38;;
66145;SDS011;52948;60.040;30.320;2023-06-24T08:41:08;2.17;;;1.92;;
66145;SDS011;52948;60.040;30.320;2023-06-24T08:46:10;4.15;;;2.25;;
66145;SDS011;52948;60.040;30.320;2023-06-24T08:51:15;2.28;;;1.80;;
66145;SDS011;52948;60.040;30.320;2023-06-24T08:56:20;2.20;;;1.77;;
66145;SDS011;52948;60.040;30.320;2023-06-24T09:01:22;3.42;;;1.88;;
66145;SDS011;52948;60.040;30.320;2023-06-24T09:06:33;3.85;;;2.00;;
66145;SDS011;52948;60.040;30.320;2023-06-24T09:11:36;2.33;;;1.80;;
66145;SDS011;52948;60.040;30.320;2023-06-24T09:16:38;2.10;;;1.90;;
66145;SDS011;52948;60.040;30.320;2023-06-24T09:21:40;1.85;;;1.50;;
66145;SDS011;52948;60.040;30.320;2023-06-24T09:26:48;1.88;;;1.70;;
66145;SDS011;52948;60.040;30.320;2023-06-24T09:31:53;1.70;;;1.60;;
66145;SDS011;52948;60.040;30.320;2023-06-24T09:37:05;2.40;;;2.00;;
66145;SDS011;52948;60.040;30.320;2023-06-24T09:42:11;4.38;;;2.33;;
66145;SDS011;52948;60.040;30.320;2023-06-24T09:52:16;7.30;;;3.28;;
66145;SDS011;52948;60.040;30.320;2023-06-24T09:57:29;3.30;;;3.00;;
66145;SDS011;52948;60.040;30.320;2023-06-24T10:02:33;3.53;;;3.20;;
66145;SDS011;52948;60.040;30.320;2023-06-24T10:07:39;5.55;;;3.20;;
66145;SDS011;52948;60.040;30.320;2023-06-24T10:12:47;5.10;;;2.90;;
66145;SDS011;52948;60.040;30.320;2023-06-24T10:17:50;3.95;;;2.40;;
66145;SDS011;52948;60.040;30.320;2023-06-24T10:22:52;3.65;;;2.60;;
66145;SDS011;52948;60.040;30.320;2023-06-24T10:27:55;4.88;;;2.58;;
66145;SDS011;52948;60.040;30.320;2023-06-24T10:33:00;4.38;;;3.10;;
66145;SDS011;52948;60.040;30.320;2023-06-24T10:38:02;3.80;;;2.60;;
66145;SDS011;52948;60.040;30.320;2023-06-24T10:48:28;5.35;;;2.90;;
66145;SDS011;52948;60.040;30.320;2023-06-24T10:53:30;2.90;;;2.45;;
66145;SDS011;52948;60.040;30.320;2023-06-24T10:58:33;2.55;;;2.28;;
66145;SDS011;52948;60.040;30.320;2023-06-24T11:03:35;3.78;;;2.40;;
66145;SDS011;52948;60.040;30.320;2023-06-24T11:08:44;6.00;;;2.80;;
66145;SDS011;52948;60.040;30.320;2023-06-24T11:13:48;3.50;;;2.95;;
66145;SDS011;52948;60.040;30.320;2023-06-24T11:18:50;2.72;;;2.17;;
66145;SDS011;52948;60.040;30.320;2023-06-24T11:23:52;3.40;;;2.72;;
66145;SDS011;52948;60.040;30.320;2023-06-24T11:28:54;3.50;;;2.42;;
66145;SDS011;52948;60.040;30.320;2023-06-24T11:34:01;5.05;;;2.60;;
66145;SDS011;52948;60.040;30.320;2023-06-24T11:39:03;4.15;;;2.28;;
66145;SDS011;52948;60.040;30.320;2023-06-24T11:44:05;3.53;;;2.42;;
66145;SDS011;52948;60.040;30.320;2023-06-24T11:49:08;2.97;;;2.22;;
66145;SDS011;52948;60.040;30.320;2023-06-24T11:54:11;2.78;;;2.15;;
66145;SDS011;52948;60.040;30.320;2023-06-24T11:59:20;3.20;;;2.38;;
66145;SDS011;52948;60.040;30.320;2023-06-24T12:04:27;3.22;;;2.20;;
66145;SDS011;52948;60.040;30.320;2023-06-24T12:09:30;5.65;;;1.98;;
66145;SDS011;52948;60.040;30.320;2023-06-24T12:14:32;2.80;;;2.00;;
66145;SDS011;52948;60.040;30.320;2023-06-24T12:19:40;3.08;;;2.25;;
66145;SDS011;52948;60.040;30.320;2023-06-24T12:24:46;2.83;;;2.20;;
66145;SDS011;52948;60.040;30.320;2023-06-24T12:29:48;2.85;;;1.92;;
66145;SDS011;52948;60.040;30.320;2023-06-24T12:34:51;4.32;;;2.38;;
66145;SDS011;52948;60.040;30.320;2023-06-24T12:39:55;2.05;;;1.50;;
66145;SDS011;52948;60.040;30.320;2023-06-24T12:45:03;2.20;;;1.80;;
66145;SDS011;52948;60.040;30.320;2023-06-24T12:50:17;2.92;;;1.73;;
66145;SDS011;52948;60.040;30.320;2023-06-24T12:55:35;2.33;;;2.00;;
66145;SDS011;52948;60.040;30.320;2023-06-24T13:00:40;3.08;;;1.50;;
66145;SDS011;52948;60.040;30.320;2023-06-24T13:05:42;3.65;;;1.58;;
66145;SDS011;52948;60.040;30.320;2023-06-24T13:10:44;2.20;;;1.60;;
66145;SDS011;52948;60.040;30.320;2023-06-24T13:15:46;1.50;;;1.40;;
66145;SDS011;52948;60.040;30.320;2023-06-24T13:20:51;6.07;;;1.30;;
66145;SDS011;52948;60.040;30.320;2023-06-24T13:26:03;1.35;;;1.25;;
66145;SDS011;52948;60.040;30.320;2023-06-24T13:38:29;2.25;;;1.30;;
66145;SDS011;52948;60.040;30.320;2023-06-24T13:43:32;1.30;;;1.20;;
66145;SDS011;52948;60.040;30.320;2023-06-24T13:48:34;3.75;;;1.55;;
66145;SDS011;52948;60.040;30.320;2023-06-24T13:53:37;1.67;;;1.17;;
66145;SDS011;52948;60.040;30.320;2023-06-24T13:58:43;1.63;;;1.20;;
66145;SDS011;52948;60.040;30.320;2023-06-24T14:04:13;2.35;;;1.70;;
66145;SDS011;52948;60.040;30.320;2023-06-24T14:09:15;1.50;;;1.40;;
66145;SDS011;52948;60.040;30.320;2023-06-24T14:14:18;2.28;;;1.73;;
66145;SDS011;52948;60.040;30.320;2023-06-24T14:19:20;1.65;;;1.55;;
66145;SDS011;52948;60.040;30.320;2023-06-24T14:24:28;1.60;;;1.40;;
66145;SDS011;52948;60.040;30.320;2023-06-24T14:29:30;1.48;;;1.38;;
66145;SDS011;52948;60.040;30.320;2023-06-24T14:34:33;1.88;;;1.33;;
66145;SDS011;52948;60.040;30.320;2023-06-24T14:39:35;1.50;;;1.40;;
66145;SDS011;52948;60.040;30.320;2023-06-24T14:44:37;1.90;;;1.65;;
66145;SDS011;52948;60.040;30.320;2023-06-24T14:49:39;3.88;;;1.60;;
66145;SDS011;52948;60.040;30.320;2023-06-24T14:54:46;4.00;;;1.70;;
66145;SDS011;52948;60.040;30.320;2023-06-24T14:59:48;1.73;;;1.42;;
66145;SDS011;52948;60.040;30.320;2023-06-24T15:04:51;1.23;;;1.13;;
66145;SDS011;52948;60.040;30.320;2023-06-24T15:09:53;1.40;;;1.27;;
66145;SDS011;52948;60.040;30.320;2023-06-24T15:14:55;2.72;;;1.30;;
66145;SDS011;52948;60.040;30.320;2023-06-24T15:19:58;2.05;;;1.33;;
66145;SDS011;52948;60.040;30.320;2023-06-24T15:25:00;1.73;;;1.38;;
66145;SDS011;52948;60.040;30.320;2023-06-24T15:30:02;2.22;;;1.27;;
66145;SDS011;52948;60.040;30.320;2023-06-24T15:35:06;1.38;;;1.27;;
66145;SDS011;52948;60.040;30.320;2023-06-24T15:40:09;2.55;;;1.65;;
66145;SDS011;52948;60.040;30.320;2023-06-24T15:45:11;1.77;;;1.55;;
66145;SDS011;52948;60.040;30.320;2023-06-24T15:50:13;2.22;;;1.42;;
66145;SDS011;52948;60.040;30.320;2023-06-24T15:55:15;1.45;;;1.20;;
66145;SDS011;52948;60.040;30.320;2023-06-24T16:00:18;1.67;;;1.48;;
66145;SDS011;52948;60.040;30.320;2023-06-24T16:05:20;1.45;;;1.35;;
66145;SDS011;52948;60.040;30.320;2023-06-24T16:10:23;1.77;;;1.45;;
66145;SDS011;52948;60.040;30.320;2023-06-24T16:15:26;1.95;;;1.70;;
66145;SDS011;52948;60.040;30.320;2023-06-24T16:20:28;1.98;;;1.60;;
66145;SDS011;52948;60.040;30.320;2023-06-24T16:25:30;3.13;;;1.20;;
66145;SDS011;52948;60.040;30.320;2023-06-24T16:30:36;1.55;;;1.20;;
66145;SDS011;52948;60.040;30.320;2023-06-24T16:35:38;1.80;;;1.48;;
66145;SDS011;52948;60.040;30.320;2023-06-24T16:40:40;1.50;;;1.23;;
66145;SDS011;52948;60.040;30.320;2023-06-24T16:45:42;2.35;;;1.50;;
66145;SDS011;52948;60.040;30.320;2023-06-24T16:50:44;1.48;;;1.38;;
66145;SDS011;52948;60.040;30.320;2023-06-24T16:55:47;3.13;;;1.30;;
66145;SDS011;52948;60.040;30.320;2023-06-24T17:00:57;1.10;;;1.00;;
66145;SDS011;52948;60.040;30.320;2023-06-24T17:05:59;2.33;;;1.27;;
66145;SDS011;52948;60.040;30.320;2023-06-24T17:11:01;2.13;;;1.38;;
66145;SDS011;52948;60.040;30.320;2023-06-24T17:16:03;1.20;;;1.10;;
66145;SDS011;52948;60.040;30.320;2023-06-24T17:21:06;1.20;;;1.10;;
66145;SDS011;52948;60.040;30.320;2023-06-24T17:26:08;1.23;;;1.10;;
66145;SDS011;52948;60.040;30.320;2023-06-24T17:31:11;2.38;;;1.50;;
66145;SDS011;52948;60.040;30.320;2023-06-24T17:36:13;1.70;;;1.30;;
66145;SDS011;52948;60.040;30.320;2023-06-24T17:41:15;1.33;;;1.23;;
66145;SDS011;52948;60.040;30.320;2023-06-24T17:46:17;3.33;;;1.50;;
66145;SDS011;52948;60.040;30.320;2023-06-24T17:51:20;1.27;;;1.15;;
66145;SDS011;52948;60.040;30.320;2023-06-24T17:56:22;1.70;;;1.42;;
66145;SDS011;52948;60.040;30.320;2023-06-24T18:01:26;1.85;;;1.50;;
66145;SDS011;52948;60.040;30.320;2023-06-24T18:06:31;3.15;;;1.77;;
66145;SDS011;52948;60.040;30.320;2023-06-24T18:11:33;2.00;;;1.55;;
66145;SDS011;52948;60.040;30.320;2023-06-24T18:16:39;2.22;;;1.60;;
66145;SDS011;52948;60.040;30.320;2023-06-24T18:21:42;1.73;;;1.58;;
66145;SDS011;52948;60.040;30.320;2023-06-24T18:26:45;1.80;;;1.65;;
66145;SDS011;52948;60.040;30.320;2023-06-24T18:31:47;2.70;;;1.80;;
66145;SDS011;52948;60.040;30.320;2023-06-24T18:36:49;2.85;;;2.00;;
66145;SDS011;52948;60.040;30.320;2023-06-24T18:41:51;4.95;;;1.70;;
66145;SDS011;52948;60.040;30.320;2023-06-24T18:46:54;3.90;;;1.80;;
66145;SDS011;52948;60.040;30.320;2023-06-24T18:51:56;2.72;;;1.85;;
66145;SDS011;52948;60.040;30.320;2023-06-24T18:56:58;2.38;;;1.65;;
66145;SDS011;52948;60.040;30.320;2023-06-24T19:02:00;4.18;;;2.35;;
66145;SDS011;52948;60.040;30.320;2023-06-24T19:07:02;3.58;;;2.20;;
66145;SDS011;52948;60.040;30.320;2023-06-24T19:12:05;4.97;;;3.17;;
66145;SDS011;52948;60.040;30.320;2023-06-24T19:17:07;3.28;;;2.00;;
66145;SDS011;52948;60.040;30.320;2023-06-24T19:22:09;2.70;;;2.00;;
66145;SDS011;52948;60.040;30.320;2023-06-24T19:27:11;2.83;;;1.70;;
66145;SDS011;52948;60.040;30.320;2023-06-24T19:32:13;4.13;;;2.10;;
66145;SDS011;52948;60.040;30.320;2023-06-24T19:37:15;2.88;;;1.88;;
66145;SDS011;52948;60.040;30.320;2023-06-24T19:42:18;3.60;;;2.60;;
66145;SDS011;52948;60.040;30.320;2023-06-24T19:47:20;4.90;;;2.10;;
66145;SDS011;52948;60.040;30.320;2023-06-24T19:52:22;3.08;;;2.40;;
66145;SDS011;52948;60.040;30.320;2023-06-24T19:57:24;3.22;;;2.00;;
66145;SDS011;52948;60.040;30.320;2023-06-24T20:02:27;4.55;;;2.33;;
66145;SDS011;52948;60.040;30.320;2023-06-24T20:07:29;3.00;;;2.22;;
66145;SDS011;52948;60.040;30.320;2023-06-24T20:12:38;2.88;;;2.03;;
66145;SDS011;52948;60.040;30.320;2023-06-24T20:17:41;3.58;;;2.50;;
66145;SDS011;52948;60.040;30.320;2023-06-24T20:22:44;2.92;;;2.10;;
66145;SDS011;52948;60.040;30.320;2023-06-24T20:27:47;3.33;;;1.55;;
66145;SDS011;52948;60.040;30.320;2023-06-24T20:32:49;3.75;;;2.30;;
66145;SDS011;52948;60.040;30.320;2023-06-24T20:37:51;3.05;;;1.80;;
66145;SDS011;52948;60.040;30.320;2023-06-24T20:42:59;2.05;;;1.60;;
66145;SDS011;52948;60.040;30.320;2023-06-24T20:48:08;3.10;;;1.90;;
66145;SDS011;52948;60.040;30.320;2023-06-24T20:53:12;2.70;;;1.70;;
66145;SDS011;52948;60.040;30.320;2023-06-24T20:58:16;2.22;;;1.65;;
66145;SDS011;52948;60.040;30.320;2023-06-24T21:03:18;5.63;;;2.30;;
66145;SDS011;52948;60.040;30.320;2023-06-24T21:08:21;2.70;;;1.58;;
66145;SDS011;52948;60.040;30.320;2023-06-24T21:13:23;3.13;;;1.63;;
66145;SDS011;52948;60.040;30.320;2023-06-24T21:18:26;2.92;;;1.98;;
66145;SDS011;52948;60.040;30.320;2023-06-24T21:23:28;3.38;;;2.13;;
66145;SDS011;52948;60.040;30.320;2023-06-24T21:28:30;3.03;;;1.83;;
66145;SDS011;52948;60.040;30.320;2023-06-24T21:33:33;3.13;;;1.60;;
66145;SDS011;52948;60.040;30.320;2023-06-24T21:38:35;3.75;;;1.85;;
66145;SDS011;52948;60.040;30.320;2023-06-24T21:43:38;3.58;;;1.70;;
66145;SDS011;52948;60.040;30.320;2023-06-24T21:48:40;2.28;;;1.60;;
66145;SDS011;52948;60.040;30.320;2023-06-24T21:53:42;3.42;;;1.98;;
66145;SDS011;52948;60.040;30.320;2023-06-24T21:58:44;3.20;;;2.15;;
66145;SDS011;52948;60.040;30.320;2023-06-24T22:03:47;7.53;;;2.20;;
66145;SDS011;52948;60.040;30.320;2023-06-24T22:08:49;3.17;;;1.88;;
66145;SDS011;52948;60.040;30.320;2023-06-24T22:13:51;4.75;;;2.00;;
66145;SDS011;52948;60.040;30.320;2023-06-24T22:18:53;2.85;;;1.88;;
66145;SDS011;52948;60.040;30.320;2023-06-24T22:23:55;4.35;;;2.05;;
66145;SDS011;52948;60.040;30.320;2023-06-24T22:28:58;4.97;;;2.55;;
66145;SDS011;52948;60.040;30.320;2023-06-24T22:34:00;2.90;;;2.05;;
66145;SDS011;52948;60.040;30.320;2023-06-24T22:39:03;3.92;;;1.80;;
66145;SDS011;52948;60.040;30.320;2023-06-24T22:44:05;5.03;;;2.03;;
66145;SDS011;52948;60.040;30.320;2023-06-24T22:49:07;5.55;;;2.05;;
66145;SDS011;52948;60.040;30.320;2023-06-24T22:54:09;3.60;;;2.22;;
66145;SDS011;52948;60.040;30.320;2023-06-24T22:59:14;4.85;;;2.30;;
66145;SDS011;52948;60.040;30.320;2023-06-24T23:04:16;4.25;;;2.08;;
66145;SDS011;52948;60.040;30.320;2023-06-24T23:09:19;5.10;;;2.13;;
66145;SDS011;52948;60.040;30.320;2023-06-24T23:14:21;4.72;;;2.22;;
66145;SDS011;52948;60.040;30.320;2023-06-24T23:19:24;3.30;;;1.90;;
66145;SDS011;52948;60.040;30.320;2023-06-24T23:24:26;3.42;;;1.90;;
66145;SDS011;52948;60.040;30.320;2023-06-24T23:29:31;4.07;;;2.28;;
66145;SDS011;52948;60.040;30.320;2023-06-24T23:34:38;4.35;;;2.50;;
66145;SDS011;52948;60.040;30.320;2023-06-24T23:39:41;5.00;;;2.60;;
66145;SDS011;52948;60.040;30.320;2023-06-24T23:44:44;4.93;;;2.45;;
66145;SDS011;52948;60.040;30.320;2023-06-24T23:49:47;5.32;;;3.03;;
66145;SDS011;52948;60.040;30.320;2023-06-24T23:54:49;10.43;;;3.97;;
66145;SDS011;52948;60.040;30.320;2023-06-24T23:59:51;6.82;;;3.88;;
